Aeroporto :
LOGIN :

Iscrizione | Disclaimer

   EN    FR    IT 

 










Sommario :    VFR   VFR Marginale   IFR   IFR Intensivo   IFR Molto Intensivo
Visibilità : 
Base nubi : 
>= 8 km
>= 3000ft
5 / 8 km
1000 / 3000 ft
1500m / 5 km
500 / 1000 ft
800 / 1500m
200 / 500 ft
< 800m
< 200 ft
Simboli :   Temporali  Nebbia  Neve Forte  Precipitazioni Forti  Vento > 20 kt
SIGMETs :   Varie  Temporali  Ghiacco  Turbolenza  Onda orograficha  Ceneri Vulcaniche






- Altitudine del aeroporto : 49 ft
- Codice IATA : GLZ


EHGR - Gilze-Rijen Airbase

ULTIMO METAR :
  • 082025Z AUTO 24013KT 200V270 9999 NCD 08/04 Q0997 BLU

METARs OBSOLETI :
  • 081955Z AUTO 23012KT 190V270 9999 OVC130 09/04 Q0997 BLU
  • 081925Z AUTO 22013G23KT 180V260 9999 FEW026 BKN029 BKN032 09/04 Q0998 BLU
  • 081855Z AUTO 22012KT 180V260 9999 FEW019CB SCT053 OVC071 09/05 Q0998 REDZ BLU
  • 081825Z AUTO 23012KT 190V270 9999 FEW019CB SCT033 BKN038 10/05 Q0998 BLU
  • 081755Z AUTO 22012KT 180V260 9999 SCT027 BKN032 OVC036 10/05 Q0998 BLU

Previsioni scadute.



MetMap, La meteo Aeronautica in un colpo d'occhio ! - Copyright ORBIFLY Dicembre 2007 - Disclaimer

ORBIFLY MET'MAP TEAM :

Programmazione e sviluppo : Alexandra Zaïnal
Concezione : Baudouin d'Aumeries
Aiuto per la programmazione : Marc-Olivier Méhu
Supporto tecnico e logistico : Manuel Goepfert
Aiuto per la traduzione : Arnaldo La Scala

Contatto : metmap@orbifly.com




FONTI E CREDITI :

   NOAA